createdAt,value
2022-12-05T00:02:12.421Z,19.77
2022-12-05T00:07:13.773Z,23.42
2022-12-05T00:12:15.076Z,17.75
2022-12-05T00:17:16.378Z,24.50
2022-12-05T00:22:17.652Z,24.90
2022-12-05T00:27:18.939Z,20.45
2022-12-05T00:32:20.560Z,17.50
2022-12-05T00:37:22.053Z,23.75
2022-12-05T00:42:23.385Z,24.33
2022-12-05T00:47:24.673Z,21.42
2022-12-05T00:52:26.615Z,20.88
2022-12-05T00:57:27.950Z,20.90
2022-12-05T01:02:29.971Z,23.05
2022-12-05T01:07:31.364Z,27.00
2022-12-05T01:12:33.319Z,20.98
2022-12-05T01:17:35.810Z,21.58
2022-12-05T01:22:37.112Z,19.63
2022-12-05T01:27:38.411Z,26.40
2022-12-05T01:32:39.758Z,21.05
2022-12-05T01:37:41.085Z,28.40
2022-12-05T01:42:42.435Z,23.75
2022-12-05T01:47:44.296Z,25.35
2022-12-05T01:52:45.636Z,18.95
2022-12-05T01:57:47.799Z,23.65
2022-12-05T02:02:51.722Z,20.02
2022-12-05T02:07:53.373Z,25.20
2022-12-05T02:13:00.239Z,22.25
2022-12-05T02:18:04.325Z,26.48
2022-12-05T02:23:23.747Z,20.98
2022-12-05T02:28:33.619Z,26.73
2022-12-05T02:33:43.190Z,21.98
2022-12-05T02:38:50.447Z,25.20
2022-12-05T02:44:15.977Z,30.95
2022-12-05T02:49:20.432Z,22.25
2022-12-05T02:54:24.412Z,23.70
2022-12-05T02:59:25.751Z,24.60
2022-12-05T03:04:27.697Z,29.40
2022-12-05T03:09:37.009Z,21.70
2022-12-05T03:19:48.767Z,22.17
2022-12-05T03:24:50.715Z,22.20
2022-12-05T03:30:01.993Z,23.73
2022-12-05T03:35:06.679Z,22.83
2022-12-05T03:40:15.049Z,24.60
2022-12-05T03:45:20.037Z,24.07
2022-12-05T03:50:24.212Z,23.35
2022-12-05T03:55:27.664Z,18.65
2022-12-05T04:00:31.830Z,24.42
2022-12-05T04:05:46.527Z,22.25
2022-12-05T04:10:49.490Z,24.23
2022-12-05T04:16:15.400Z,20.98
2022-12-05T04:21:37.339Z,21.90
2022-12-05T04:26:43.394Z,23.67
2022-12-05T04:31:47.631Z,29.95
2022-12-05T04:37:06.747Z,21.38
2022-12-05T04:42:10.080Z,19.85
2022-12-05T04:47:14.630Z,19.52
2022-12-05T04:52:15.973Z,24.63
2022-12-05T04:57:23.286Z,20.35
2022-12-05T05:02:27.793Z,25.85
2022-12-05T05:07:29.336Z,24.33
2022-12-05T05:12:30.736Z,21.20
2022-12-05T05:17:32.081Z,21.60
2022-12-05T05:22:33.526Z,15.48
2022-12-05T05:27:34.868Z,24.70
2022-12-05T05:32:36.165Z,18.90
2022-12-05T05:37:37.732Z,21.15
2022-12-05T05:42:43.290Z,23.48
2022-12-05T05:47:44.986Z,16.67
2022-12-05T05:52:46.322Z,18.58
2022-12-05T05:57:47.692Z,24.60
2022-12-05T06:02:49.171Z,19.80
2022-12-05T06:07:52.506Z,18.80
2022-12-05T06:12:53.915Z,19.17
2022-12-05T06:17:56.413Z,25.00
2022-12-05T06:22:57.722Z,24.15
2022-12-05T06:27:59.040Z,24.98
2022-12-05T06:33:00.373Z,17.13
2022-12-05T06:38:01.895Z,18.50
2022-12-05T06:43:03.279Z,21.83
2022-12-05T06:48:04.718Z,23.13
2022-12-05T06:53:06.007Z,22.08
2022-12-05T06:58:07.310Z,18.20
2022-12-05T07:03:10.484Z,22.25
2022-12-05T07:08:11.960Z,19.48
2022-12-05T07:13:15.794Z,21.77
2022-12-05T07:18:17.803Z,27.40
2022-12-05T07:23:19.127Z,20.90
2022-12-05T07:28:20.801Z,24.88
2022-12-05T07:33:22.093Z,26.40
2022-12-05T07:38:23.374Z,25.15
2022-12-05T07:43:24.873Z,20.90
2022-12-05T07:48:26.216Z,23.13
2022-12-05T07:53:27.791Z,23.35
2022-12-05T07:58:29.611Z,22.52
2022-12-05T08:03:30.915Z,22.65
2022-12-05T08:08:32.843Z,21.08
2022-12-05T08:13:34.762Z,24.60
2022-12-05T08:18:36.533Z,20.00
2022-12-05T08:23:38.618Z,19.80
2022-12-05T08:28:40.486Z,18.67
2022-12-05T08:33:42.569Z,19.05
2022-12-05T08:38:44.539Z,25.20
2022-12-05T08:43:45.898Z,24.25
2022-12-05T08:48:47.203Z,21.83
2022-12-05T08:53:48.687Z,23.90
2022-12-05T08:58:49.970Z,25.33
2022-12-05T09:03:51.297Z,18.08
2022-12-05T09:08:56.621Z,21.77
2022-12-05T09:13:58.689Z,20.50
2022-12-05T09:19:00.336Z,20.67
2022-12-05T09:24:02.313Z,22.63
2022-12-05T09:29:03.642Z,18.50
2022-12-05T09:34:05.814Z,20.67
2022-12-05T09:39:07.177Z,17.25
2022-12-05T09:44:13.151Z,18.05
2022-12-05T09:49:14.465Z,17.60
2022-12-05T09:54:15.830Z,21.25
2022-12-05T09:59:18.248Z,23.77
2022-12-05T10:04:31.965Z,22.35
2022-12-05T10:09:36.442Z,20.67
2022-12-05T10:14:44.326Z,17.13
2022-12-05T10:19:47.577Z,22.08
2022-12-05T10:24:54.342Z,17.77
2022-12-05T10:30:04.671Z,20.23
2022-12-05T10:35:24.886Z,19.63
2022-12-05T10:40:27.323Z,18.52
2022-12-05T10:45:28.640Z,23.50
2022-12-05T10:50:32.040Z,16.48
2022-12-05T10:55:39.733Z,18.38
2022-12-05T11:00:46.483Z,16.58
2022-12-05T11:05:52.887Z,16.33
2022-12-05T11:11:04.910Z,16.65
2022-12-05T11:16:21.825Z,15.57
2022-12-05T11:21:23.949Z,13.43
2022-12-05T11:26:35.698Z,13.68
2022-12-05T11:31:37.104Z,12.30
2022-12-05T11:36:44.218Z,12.63
2022-12-05T11:41:45.609Z,12.55
2022-12-05T11:47:10.323Z,12.07
2022-12-05T11:52:30.215Z,19.38
2022-12-05T11:57:48.873Z,13.52
2022-12-05T12:02:53.426Z,12.30
2022-12-05T12:08:15.111Z,10.95
2022-12-05T12:13:36.770Z,11.52
2022-12-05T12:18:52.217Z,11.27
2022-12-05T12:24:19.727Z,13.05
2022-12-05T12:29:21.011Z,11.50
2022-12-05T12:34:34.524Z,11.02
2022-12-05T12:39:59.104Z,14.57
2022-12-05T12:45:21.019Z,14.95
2022-12-05T12:50:24.850Z,10.07
2022-12-05T12:55:44.956Z,11.30
2022-12-05T13:00:46.297Z,9.35
2022-12-05T13:05:50.008Z,10.45
2022-12-05T13:10:51.942Z,8.13
2022-12-05T13:15:55.461Z,9.02
2022-12-05T13:20:57.714Z,10.07
2022-12-05T13:26:00.251Z,11.27
2022-12-05T13:31:02.644Z,9.82
2022-12-05T13:36:27.109Z,10.18
2022-12-05T13:42:04.010Z,11.80
2022-12-05T13:47:07.335Z,11.57
2022-12-05T13:52:18.695Z,9.13
2022-12-05T13:57:52.267Z,12.18
2022-12-05T14:03:03.251Z,12.70
2022-12-05T14:08:23.216Z,11.95
2022-12-05T14:13:25.240Z,12.30
2022-12-05T14:18:35.695Z,12.07
2022-12-05T14:23:51.527Z,12.65
2022-12-05T14:29:11.406Z,10.93
2022-12-05T14:34:16.420Z,10.75
2022-12-05T14:39:22.545Z,11.02
2022-12-05T14:44:24.455Z,11.48
2022-12-05T14:49:38.072Z,12.35
2022-12-05T14:54:41.336Z,12.50
2022-12-05T14:59:48.623Z,12.80
2022-12-05T15:04:49.969Z,10.90
2022-12-05T15:09:59.411Z,14.32
2022-12-05T15:15:06.750Z,10.02
2022-12-05T15:20:15.207Z,9.82
2022-12-05T15:25:42.621Z,11.07
2022-12-05T15:30:44.572Z,10.75
2022-12-05T15:35:48.048Z,8.95
2022-12-05T15:40:49.377Z,12.52
2022-12-05T15:45:50.700Z,10.43
2022-12-05T15:50:53.270Z,7.57
2022-12-05T15:55:55.827Z,11.48
2022-12-05T16:00:59.896Z,10.25
2022-12-05T16:06:04.673Z,8.52
2022-12-05T16:11:09.796Z,9.75
2022-12-05T16:16:15.302Z,10.65
2022-12-05T16:21:31.899Z,9.00
2022-12-05T16:26:37.419Z,12.70
2022-12-05T16:31:39.601Z,11.23
2022-12-05T16:36:47.944Z,8.80
2022-12-05T16:41:49.957Z,13.50
2022-12-05T16:46:51.999Z,8.75
2022-12-05T16:51:55.599Z,9.55
2022-12-05T16:56:58.435Z,9.73
2022-12-05T17:02:01.894Z,14.20
2022-12-05T17:07:03.459Z,7.90
2022-12-05T17:12:08.058Z,8.43
2022-12-05T17:17:13.340Z,6.47
2022-12-05T17:22:15.690Z,6.32
2022-12-05T17:27:16.996Z,6.70
2022-12-05T17:32:18.311Z,6.70
2022-12-05T17:37:19.617Z,5.93
2022-12-05T17:42:20.911Z,17.10
2022-12-05T17:47:22.396Z,9.88
2022-12-05T17:52:23.780Z,7.07
2022-12-05T17:57:25.157Z,7.63
2022-12-05T18:02:26.494Z,7.63
2022-12-05T18:07:27.866Z,7.57
2022-12-05T18:12:29.253Z,6.93
2022-12-05T18:17:30.882Z,6.03
2022-12-05T18:22:32.254Z,8.65
2022-12-05T18:27:34.323Z,11.63
2022-12-05T18:32:35.670Z,9.85
2022-12-05T18:37:37.945Z,8.90
2022-12-05T18:42:39.245Z,7.78
2022-12-05T18:47:40.547Z,8.55
2022-12-05T18:52:41.825Z,10.18
2022-12-05T18:57:43.788Z,7.60
2022-12-05T19:02:47.499Z,9.48
2022-12-05T19:07:49.158Z,7.05
2022-12-05T19:12:50.490Z,9.60
2022-12-05T19:17:51.797Z,9.77
2022-12-05T19:22:59.227Z,8.38
2022-12-05T19:28:02.103Z,8.15
2022-12-05T19:33:03.504Z,9.48
2022-12-05T19:38:04.870Z,9.95
2022-12-05T19:43:06.266Z,12.52
2022-12-05T19:48:07.614Z,11.25
2022-12-05T19:53:12.099Z,13.15
2022-12-05T19:58:13.398Z,11.30
2022-12-05T20:03:14.799Z,13.13
2022-12-05T20:08:16.178Z,11.15
2022-12-05T20:13:45.480Z,9.40
2022-12-05T20:18:42.773Z,11.35
2022-12-05T20:23:44.206Z,12.32
2022-12-05T20:28:45.525Z,10.82
2022-12-05T20:33:48.538Z,10.73
2022-12-05T20:38:54.363Z,12.75
2022-12-05T20:43:59.753Z,10.70
2022-12-05T20:49:01.061Z,11.45
2022-12-05T20:54:03.309Z,11.02
2022-12-05T20:59:05.920Z,12.52
2022-12-05T21:04:07.804Z,9.73
2022-12-05T21:09:18.301Z,12.05
2022-12-05T21:14:19.691Z,13.45
2022-12-05T21:19:21.241Z,9.85
2022-12-05T21:24:23.776Z,11.98
2022-12-05T21:29:25.106Z,14.00
2022-12-05T21:34:26.451Z,14.38
2022-12-05T21:39:27.793Z,12.25
2022-12-05T21:44:29.143Z,12.27
2022-12-05T21:49:30.430Z,11.25
2022-12-05T21:54:31.825Z,12.70
2022-12-05T21:59:33.222Z,12.90
2022-12-05T22:04:34.550Z,14.80
2022-12-05T22:09:35.844Z,12.05
2022-12-05T22:14:37.295Z,20.02
2022-12-05T22:19:38.587Z,14.07
2022-12-05T22:24:40.127Z,15.98
2022-12-05T22:29:41.462Z,15.10
2022-12-05T22:34:42.782Z,14.15
2022-12-05T22:39:44.168Z,14.75
2022-12-05T22:44:45.453Z,15.93
2022-12-05T22:49:46.812Z,15.20
2022-12-05T22:54:48.138Z,12.60
2022-12-05T22:59:49.471Z,15.77
2022-12-05T23:04:50.785Z,15.27
2022-12-05T23:09:52.371Z,16.73
2022-12-05T23:14:53.677Z,15.63
2022-12-05T23:19:54.982Z,20.17
2022-12-05T23:24:56.271Z,19.88
2022-12-05T23:29:57.980Z,18.38
2022-12-05T23:34:59.566Z,19.40
2022-12-05T23:40:01.172Z,20.35
2022-12-05T23:45:02.698Z,26.48
2022-12-05T23:50:04.214Z,21.90
2022-12-05T23:55:05.723Z,20.83
